Terminal Aerodrome Forecast
Issued by NWS

Home | Current Version | Previous Version | Text Only | Print | Product List | Glossary On
Versions: 1 2 3 4 5 6 7 8 9 10 11 12 13 14 15
000
FTUS43 KICT 222300
TAFRSL
TAF
KRSL 222320Z 2300/2324 16010KT P6SM BKN250
     FM231200 17013G20KT P6SM VCSH OVC070
     FM231800 18015G22KT P6SM -RA BKN050=

USA.gov is the U.S. government's official web portal to all federal, state and local government web resources and services.